Time;durP1;ratioP1;P1;durP2;ratioP2;P2;SDS_P1;SDS_P2;PMS_P1;PMS_P2;Temp;Humidity;BMP_temperature;BMP_pressure;BME280_temperature;BME280_humidity;BME280_pressure;Samples;Min_cycle;Max_cycle;Signal;HPM_P1;HPM_P2
2021/03/01 00:00:13;;;;;;;57.13;26.53;;;;;;;;;;4918869;29;20946;-64
2021/03/01 00:02:40;;;;;;;51.07;25.87;;;;;;;;;;4926365;29;20504;-64
2021/03/01 00:05:08;;;;;;;51.40;25.50;;;;;;;;;;4918758;29;21090;-64
2021/03/01 00:07:35;;;;;;;52.40;25.30;;;;;;;;;;4918300;29;20462;-64
2021/03/01 00:10:02;;;;;;;41.83;24.47;;;;;;;;;;4918470;29;20938;-64
2021/03/01 00:12:28;;;;;;;48.97;23.57;;;;;;;;;;4926056;29;20454;-64
2021/03/01 00:14:55;;;;;;;38.80;23.20;;;;;;;;;;4918484;29;20465;-64
2021/03/01 00:17:22;;;;;;;32.70;20.07;;;;;;;;;;4920520;29;20445;-64
2021/03/01 00:19:48;;;;;;;38.97;21.83;;;;;;;;;;4937491;29;20449;-63
2021/03/01 00:22:15;;;;;;;42.13;22.43;;;;;;;;;;4931074;29;20490;-64
2021/03/01 00:24:42;;;;;;;41.50;21.70;;;;;;;;;;4918004;29;20482;-63
2021/03/01 00:27:09;;;;;;;38.87;22.07;;;;;;;;;;4917575;29;20457;-63
2021/03/01 00:29:36;;;;;;;40.60;22.77;;;;;;;;;;4918105;29;20447;-64
2021/03/01 00:32:02;;;;;;;38.53;20.67;;;;;;;;;;4917115;29;20869;-64
2021/03/01 00:34:29;;;;;;;37.33;20.83;;;;;;;;;;4926852;29;20500;-64
2021/03/01 00:36:56;;;;;;;32.17;19.80;;;;;;;;;;4961194;23;20627;-67
2021/03/01 00:39:23;;;;;;;31.73;18.30;;;;;;;;;;4955113;29;20476;-65
2021/03/01 00:41:50;;;;;;;33.20;20.10;;;;;;;;;;4955378;29;20448;-63
2021/03/01 00:44:17;;;;;;;33.70;20.47;;;;;;;;;;4955287;29;20511;-64
2021/03/01 00:46:44;;;;;;;28.43;19.03;;;;;;;;;;4967756;28;20534;-64
2021/03/01 00:49:10;;;;;;;31.57;18.40;;;;;;;;;;4974626;28;20517;-64
2021/03/01 00:51:37;;;;;;;37.27;22.17;;;;;;;;;;4974394;28;20517;-64
2021/03/01 00:54:04;;;;;;;32.20;19.07;;;;;;;;;;4974092;28;20448;-64
2021/03/01 00:56:30;;;;;;;36.60;20.43;;;;;;;;;;4974355;28;20479;-64
2021/03/01 00:58:58;;;;;;;34.10;20.97;;;;;;;;;;4974502;28;20467;-65
2021/03/01 01:01:24;;;;;;;35.07;20.57;;;;;;;;;;4960186;28;20460;-65
2021/03/01 01:03:51;;;;;;;36.67;19.87;;;;;;;;;;4955578;28;20491;-65
2021/03/01 01:06:18;;;;;;;33.90;20.87;;;;;;;;;;4954945;29;20994;-64
2021/03/01 01:08:44;;;;;;;36.70;20.20;;;;;;;;;;4968452;28;20459;-64
2021/03/01 01:11:11;;;;;;;36.40;21.13;;;;;;;;;;4974884;28;20451;-64
2021/03/01 01:13:37;;;;;;;28.20;19.30;;;;;;;;;;4973751;28;20861;-64
2021/03/01 01:16:05;;;;;;;29.30;18.63;;;;;;;;;;4973539;28;20986;-63
2021/03/01 01:18:31;;;;;;;27.57;18.43;;;;;;;;;;4973908;28;20466;-64
2021/03/01 01:20:58;;;;;;;31.57;18.33;;;;;;;;;;4974089;28;20456;-63
2021/03/01 01:23:25;;;;;;;27.83;18.87;;;;;;;;;;4973643;28;20505;-64
2021/03/01 01:25:51;;;;;;;28.60;16.33;;;;;;;;;;4973756;28;20486;-64
2021/03/01 01:28:19;;;;;;;30.23;17.70;;;;;;;;;;4973471;28;20979;-65
2021/03/01 01:30:46;;;;;;;31.27;18.17;;;;;;;;;;4971762;28;20877;-64
2021/03/01 01:33:13;;;;;;;29.40;17.50;;;;;;;;;;4972764;28;20873;-66
2021/03/01 01:35:40;;;;;;;29.70;18.30;;;;;;;;;;4974517;28;20510;-66
2021/03/01 01:38:07;;;;;;;31.43;18.80;;;;;;;;;;4974647;28;20462;-64
2021/03/01 01:40:34;;;;;;;34.70;19.37;;;;;;;;;;4973273;28;20872;-64
2021/03/01 01:43:00;;;;;;;32.20;20.60;;;;;;;;;;4973856;28;20581;-64
2021/03/01 01:45:27;;;;;;;35.10;19.53;;;;;;;;;;4973166;28;20474;-64
2021/03/01 01:47:54;;;;;;;31.30;18.00;;;;;;;;;;4973099;28;20451;-65
2021/03/01 01:50:23;;;;;;;31.00;17.97;;;;;;;;;;4973869;28;20459;-64
2021/03/01 01:52:51;;;;;;;30.40;18.17;;;;;;;;;;4972661;28;20448;-65
2021/03/01 01:55:18;;;;;;;30.87;19.60;;;;;;;;;;4971299;28;20451;-64
2021/03/01 01:57:45;;;;;;;38.53;19.37;;;;;;;;;;4972458;28;20451;-64
2021/03/01 02:00:21;;;;;;;31.50;19.30;;;;;;;;;;4970831;28;20855;-65
2021/03/01 02:02:50;;;;;;;35.33;19.20;;;;;;;;;;4970607;28;20974;-64
2021/03/01 02:05:18;;;;;;;26.03;17.33;;;;;;;;;;4972834;28;20463;-64
2021/03/01 02:07:52;;;;;;;26.23;17.07;;;;;;;;;;4972152;28;20844;-64
2021/03/01 02:10:22;;;;;;;28.43;17.60;;;;;;;;;;4961878;28;20447;-63
2021/03/01 02:12:52;;;;;;;33.30;18.27;;;;;;;;;;4968001;28;20451;-67
2021/03/01 02:15:22;;;;;;;30.33;17.97;;;;;;;;;;4963849;28;20448;-64
2021/03/01 02:17:49;;;;;;;26.70;17.10;;;;;;;;;;4964226;28;20447;-63
2021/03/01 02:20:16;;;;;;;29.90;18.20;;;;;;;;;;4972344;28;20452;-64
2021/03/01 02:22:43;;;;;;;30.60;18.40;;;;;;;;;;4971549;28;20487;-64
2021/03/01 02:25:11;;;;;;;26.70;17.00;;;;;;;;;;4971782;28;20459;-64
2021/03/01 02:27:40;;;;;;;26.63;18.10;;;;;;;;;;4972360;28;20822;-64
2021/03/01 02:30:10;;;;;;;36.63;18.60;;;;;;;;;;4972566;28;20456;-65
2021/03/01 02:32:38;;;;;;;28.40;18.37;;;;;;;;;;4970977;28;20448;-64
2021/03/01 02:35:06;;;;;;;30.20;18.60;;;;;;;;;;4971650;28;20460;-64
2021/03/01 02:37:34;;;;;;;31.43;19.50;;;;;;;;;;4972407;28;20478;-64
2021/03/01 02:40:02;;;;;;;26.50;17.20;;;;;;;;;;4972525;28;20456;-64
2021/03/01 02:42:30;;;;;;;24.63;16.93;;;;;;;;;;4972653;28;20510;-65
2021/03/01 02:44:56;;;;;;;26.27;16.20;;;;;;;;;;4972173;28;20831;-64
2021/03/01 02:47:24;;;;;;;25.07;16.93;;;;;;;;;;4972012;28;20471;-65
2021/03/01 02:49:53;;;;;;;24.07;16.93;;;;;;;;;;4972197;28;20526;-64
2021/03/01 02:52:20;;;;;;;23.43;16.20;;;;;;;;;;4972660;28;20451;-64
2021/03/01 02:54:48;;;;;;;21.63;15.90;;;;;;;;;;4972273;28;20906;-65
2021/03/01 02:57:16;;;;;;;17.53;12.30;;;;;;;;;;4972382;28;20471;-64
2021/03/01 02:59:43;;;;;;;17.50;12.10;;;;;;;;;;4971566;28;20455;-64
2021/03/01 03:02:10;;;;;;;16.47;13.13;;;;;;;;;;4976356;28;20466;-65
2021/03/01 03:04:38;;;;;;;20.20;14.77;;;;;;;;;;4976220;28;20454;-64
2021/03/01 03:07:05;;;;;;;18.13;13.00;;;;;;;;;;4976000;28;20522;-64
2021/03/01 03:09:32;;;;;;;19.43;13.23;;;;;;;;;;4975946;28;20806;-63
2021/03/01 03:12:00;;;;;;;21.53;13.67;;;;;;;;;;4976257;28;20458;-64
2021/03/01 03:14:27;;;;;;;19.87;15.07;;;;;;;;;;4975591;28;20448;-64
2021/03/01 03:16:55;;;;;;;16.70;13.00;;;;;;;;;;4975983;28;20810;-64
2021/03/01 03:19:22;;;;;;;15.40;12.37;;;;;;;;;;4976054;28;20506;-64
2021/03/01 03:21:49;;;;;;;14.53;11.63;;;;;;;;;;4975949;28;20950;-63
2021/03/01 03:24:15;;;;;;;17.20;11.90;;;;;;;;;;4975370;28;20493;-63
2021/03/01 03:26:42;;;;;;;17.20;12.00;;;;;;;;;;4975622;28;20533;-63
2021/03/01 03:29:09;;;;;;;18.23;10.97;;;;;;;;;;4975460;28;20451;-64
2021/03/01 03:31:36;;;;;;;20.33;12.47;;;;;;;;;;4975729;28;20455;-64
2021/03/01 03:34:03;;;;;;;16.37;12.00;;;;;;;;;;4975747;28;20454;-63
2021/03/01 03:36:32;;;;;;;16.60;12.70;;;;;;;;;;4974954;28;21060;-64
2021/03/01 03:39:00;;;;;;;17.40;12.70;;;;;;;;;;4975694;28;20447;-64
2021/03/01 03:41:28;;;;;;;16.20;12.97;;;;;;;;;;4975348;28;21113;-64
2021/03/01 03:43:56;;;;;;;19.20;14.00;;;;;;;;;;4975579;28;20486;-64
2021/03/01 03:46:25;;;;;;;18.50;13.10;;;;;;;;;;4974764;28;20478;-64
2021/03/01 03:48:53;;;;;;;19.67;13.63;;;;;;;;;;4975304;28;20455;-63
2021/03/01 03:51:21;;;;;;;17.50;13.47;;;;;;;;;;4975474;28;20502;-64
2021/03/01 03:53:49;;;;;;;19.10;12.47;;;;;;;;;;4972407;28;20479;-64
2021/03/01 03:56:16;;;;;;;24.00;15.00;;;;;;;;;;4966312;28;20480;-63
2021/03/01 03:58:45;;;;;;;20.53;14.73;;;;;;;;;;4964898;28;20455;-63
2021/03/01 04:01:13;;;;;;;24.50;15.30;;;;;;;;;;4975357;28;20452;-64
2021/03/01 04:03:42;;;;;;;21.13;13.83;;;;;;;;;;4975330;28;20483;-63
2021/03/01 04:06:12;;;;;;;23.87;14.67;;;;;;;;;;4974910;28;20472;-64
2021/03/01 04:08:39;;;;;;;22.67;15.27;;;;;;;;;;4975125;28;20461;-63
2021/03/01 04:11:06;;;;;;;23.20;14.60;;;;;;;;;;4974740;28;20798;-63
2021/03/01 04:13:33;;;;;;;23.47;15.40;;;;;;;;;;4974816;28;20455;-64
2021/03/01 04:16:00;;;;;;;21.17;14.17;;;;;;;;;;4974607;28;20983;-63
2021/03/01 04:18:28;;;;;;;25.47;14.23;;;;;;;;;;4975104;28;20458;-64
2021/03/01 04:20:55;;;;;;;21.50;14.90;;;;;;;;;;4974430;28;20451;-63
2021/03/01 04:23:24;;;;;;;19.40;14.40;;;;;;;;;;4975057;28;20511;-64
2021/03/01 04:25:51;;;;;;;24.33;16.03;;;;;;;;;;4974909;28;20787;-64
2021/03/01 04:28:19;;;;;;;22.50;15.43;;;;;;;;;;4974832;28;20455;-63
2021/03/01 04:30:47;;;;;;;21.10;15.83;;;;;;;;;;4974785;28;20458;-63
2021/03/01 04:33:14;;;;;;;24.30;14.67;;;;;;;;;;4975159;28;20456;-63
2021/03/01 04:35:40;;;;;;;25.80;15.83;;;;;;;;;;4974064;28;20483;-64
2021/03/01 04:38:07;;;;;;;20.40;14.20;;;;;;;;;;4975257;28;20461;-64
2021/03/01 04:40:35;;;;;;;22.97;14.20;;;;;;;;;;4965416;28;21023;-63
2021/03/01 04:43:01;;;;;;;23.43;15.60;;;;;;;;;;4974388;28;20487;-63
2021/03/01 04:45:29;;;;;;;22.10;13.60;;;;;;;;;;4974343;28;20471;-63
2021/03/01 04:47:55;;;;;;;21.37;14.90;;;;;;;;;;4974545;28;20458;-63
2021/03/01 04:50:22;;;;;;;20.13;14.30;;;;;;;;;;4974161;28;20447;-63
2021/03/01 04:52:49;;;;;;;18.50;14.17;;;;;;;;;;4974344;28;20474;-63
2021/03/01 04:55:16;;;;;;;15.43;13.50;;;;;;;;;;4974546;28;20463;-64
2021/03/01 04:57:44;;;;;;;20.00;14.10;;;;;;;;;;4973999;28;20840;-64
2021/03/01 05:00:11;;;;;;;21.87;14.80;;;;;;;;;;4972310;28;20593;-64
2021/03/01 05:02:40;;;;;;;18.63;14.30;;;;;;;;;;4968239;28;20506;-64
2021/03/01 05:05:08;;;;;;;22.00;13.67;;;;;;;;;;4974242;28;20452;-64
2021/03/01 05:07:36;;;;;;;21.20;17.47;;;;;;;;;;4974194;28;20580;-64
2021/03/01 05:10:05;;;;;;;19.83;16.93;;;;;;;;;;4974363;28;20458;-64
2021/03/01 05:12:31;;;;;;;23.10;18.53;;;;;;;;;;4973707;28;20463;-64
2021/03/01 05:14:59;;;;;;;25.67;19.17;;;;;;;;;;4973377;28;20459;-63
2021/03/01 05:17:25;;;;;;;24.57;18.33;;;;;;;;;;4973050;28;20478;-63
2021/03/01 05:19:52;;;;;;;22.83;18.30;;;;;;;;;;4974282;28;20501;-64
2021/03/01 05:22:19;;;;;;;22.00;18.60;;;;;;;;;;4973671;28;20583;-64
2021/03/01 05:24:45;;;;;;;23.47;18.10;;;;;;;;;;4973567;28;20666;-64
2021/03/01 05:27:12;;;;;;;20.63;18.03;;;;;;;;;;4973425;28;20475;-64
2021/03/01 05:29:38;;;;;;;18.93;16.90;;;;;;;;;;4974218;28;20451;-63
2021/03/01 05:32:06;;;;;;;17.93;16.03;;;;;;;;;;4973250;28;20518;-64
2021/03/01 05:34:33;;;;;;;17.33;15.63;;;;;;;;;;4973776;28;20470;-63
2021/03/01 05:36:59;;;;;;;16.57;14.83;;;;;;;;;;4972739;28;20510;-64
2021/03/01 05:39:26;;;;;;;15.83;13.60;;;;;;;;;;4973709;28;20572;-63
2021/03/01 05:41:54;;;;;;;14.93;13.43;;;;;;;;;;4973259;28;20579;-64
2021/03/01 05:44:21;;;;;;;15.80;13.60;;;;;;;;;;4973275;28;20486;-63
2021/03/01 05:46:48;;;;;;;15.10;13.53;;;;;;;;;;4973362;28;20482;-65
2021/03/01 05:49:16;;;;;;;18.00;14.80;;;;;;;;;;4973569;28;20536;-63
2021/03/01 05:51:46;;;;;;;17.63;14.23;;;;;;;;;;4972957;28;20451;-63
2021/03/01 05:54:14;;;;;;;16.87;15.07;;;;;;;;;;4954058;29;20802;-63
2021/03/01 05:56:40;;;;;;;16.20;14.60;;;;;;;;;;4955399;28;20476;-63
2021/03/01 05:59:07;;;;;;;16.03;14.43;;;;;;;;;;4973042;28;20518;-65
2021/03/01 06:01:34;;;;;;;14.90;13.50;;;;;;;;;;4972830;28;20974;-65
2021/03/01 06:04:00;;;;;;;16.20;14.57;;;;;;;;;;4972878;28;21033;-64
2021/03/01 06:06:28;;;;;;;15.33;13.73;;;;;;;;;;4972828;28;20482;-65
2021/03/01 06:08:54;;;;;;;15.37;13.80;;;;;;;;;;4973289;28;20455;-65
2021/03/01 06:11:21;;;;;;;18.60;15.20;;;;;;;;;;4971800;28;20459;-65
2021/03/01 06:13:48;;;;;;;14.50;13.00;;;;;;;;;;4972449;28;20809;-63
2021/03/01 06:16:14;;;;;;;15.87;14.37;;;;;;;;;;4972650;28;20481;-66
2021/03/01 06:18:43;;;;;;;16.97;15.17;;;;;;;;;;4972885;28;20947;-64
2021/03/01 06:21:11;;;;;;;16.13;14.63;;;;;;;;;;4972761;28;20456;-65
2021/03/01 06:23:39;;;;;;;16.20;14.67;;;;;;;;;;4972554;28;20486;-64
2021/03/01 06:26:28;;;;;;;14.70;13.23;;;;;;;;;;4971933;28;20479;-63
2021/03/01 06:28:56;;;;;;;20.07;17.53;;;;;;;;;;4972682;28;21009;-64
2021/03/01 06:31:33;;;;;;;21.10;18.73;;;;;;;;;;4972722;28;20455;-63
2021/03/01 06:34:14;;;;;;;25.83;20.20;;;;;;;;;;4972505;28;20478;-63
2021/03/01 06:36:53;;;;;;;24.37;20.80;;;;;;;;;;4971462;28;20490;-62
2021/03/01 06:39:25;;;;;;;23.87;19.30;;;;;;;;;;4972970;28;20555;-63
2021/03/01 06:41:52;;;;;;;24.03;18.87;;;;;;;;;;4972676;28;20447;-63
2021/03/01 06:44:19;;;;;;;21.37;18.60;;;;;;;;;;4981534;23;20504;-64
2021/03/01 06:46:50;;;;;;;23.77;19.70;;;;;;;;;;4930519;29;20472;-64
2021/03/01 06:49:17;;;;;;;21.50;18.30;;;;;;;;;;4937323;29;20454;-66
2021/03/01 06:51:44;;;;;;;19.17;17.10;;;;;;;;;;4934129;29;21005;-65
2021/03/01 06:54:11;;;;;;;21.47;18.70;;;;;;;;;;4934794;29;20473;-64
2021/03/01 06:56:39;;;;;;;25.30;19.30;;;;;;;;;;4936768;29;20459;-65
2021/03/01 06:59:13;;;;;;;19.47;17.20;;;;;;;;;;4934803;29;20460;-64
2021/03/01 07:01:47;;;;;;;25.30;18.93;;;;;;;;;;4934528;29;21142;-65
2021/03/01 07:04:21;;;;;;;21.77;19.53;;;;;;;;;;4950332;28;21043;-65
2021/03/01 07:06:48;;;;;;;22.57;18.43;;;;;;;;;;4947121;28;20472;-64
2021/03/01 07:09:15;;;;;;;25.50;20.20;;;;;;;;;;4934436;29;20460;-63
2021/03/01 07:11:43;;;;;;;9.27;5.40;;;;;;;;;;4934522;29;20530;-68
2021/03/01 07:14:10;;;;;;;11.70;5.97;;;;;;;;;;4934472;29;20528;-67
2021/03/01 07:16:38;;;;;;;7.90;5.80;;;;;;;;;;4934195;29;20456;-66
2021/03/01 07:19:05;;;;;;;14.80;6.10;;;;;;;;;;4934465;29;20477;-63
2021/03/01 07:21:32;;;;;;;10.40;5.53;;;;;;;;;;4933248;29;20969;-65
2021/03/01 07:23:59;;;;;;;11.37;5.27;;;;;;;;;;4933622;29;20493;-66
2021/03/01 07:26:26;;;;;;;6.57;5.93;;;;;;;;;;4933379;29;20519;-65
2021/03/01 07:28:56;;;;;;;6.80;6.10;;;;;;;;;;4935751;29;20468;-64
2021/03/01 07:31:23;;;;;;;6.20;5.67;;;;;;;;;;4936070;29;20460;-62
2021/03/01 07:33:50;;;;;;;6.10;5.60;;;;;;;;;;4935570;29;20461;-66
2021/03/01 07:36:17;;;;;;;6.20;5.80;;;;;;;;;;4933889;29;20524;-68
2021/03/01 07:38:44;;;;;;;6.30;5.40;;;;;;;;;;4933790;29;20500;-68
2021/03/01 07:41:11;;;;;;;4.80;4.30;;;;;;;;;;4933168;29;20469;-68
2021/03/01 07:43:39;;;;;;;4.47;4.07;;;;;;;;;;4933191;29;20526;-67
2021/03/01 07:46:07;;;;;;;4.00;3.60;;;;;;;;;;4932893;29;20964;-68
2021/03/01 07:48:35;;;;;;;3.77;3.47;;;;;;;;;;4935949;29;20469;-68
2021/03/01 07:51:01;;;;;;;4.07;3.67;;;;;;;;;;4933580;29;20833;-67
2021/03/01 07:53:46;;;;;;;5.00;3.90;;;;;;;;;;4935841;29;20831;-68
2021/03/01 07:56:33;;;;;;;3.47;3.17;;;;;;;;;;4936455;29;20480;-68
2021/03/01 07:59:01;;;;;;;3.90;3.50;;;;;;;;;;4937284;29;20449;-66
2021/03/01 08:01:29;;;;;;;3.43;3.00;;;;;;;;;;4934509;29;20835;-67
2021/03/01 08:03:56;;;;;;;4.83;3.33;;;;;;;;;;4935779;29;21019;-66
2021/03/01 08:06:23;;;;;;;4.60;3.60;;;;;;;;;;4928671;29;20469;-66
2021/03/01 08:08:50;;;;;;;3.77;3.30;;;;;;;;;;4936976;29;20476;-66
2021/03/01 08:11:37;;;;;;;3.53;3.23;;;;;;;;;;4934987;29;20467;-66
2021/03/01 08:14:04;;;;;;;4.10;3.70;;;;;;;;;;4949684;28;21003;-68
2021/03/01 08:16:31;;;;;;;4.10;3.40;;;;;;;;;;4938405;29;20532;-67
2021/03/01 08:18:58;;;;;;;13.10;11.90;;;;;;;;;;4935126;29;20477;-62
2021/03/01 08:21:25;;;;;;;15.00;13.70;;;;;;;;;;4927795;29;21047;-62
2021/03/01 08:23:52;;;;;;;15.03;13.53;;;;;;;;;;4935091;29;21033;-62
2021/03/01 08:26:28;;;;;;;15.23;13.80;;;;;;;;;;4934703;29;20477;-61
2021/03/01 08:28:56;;;;;;;15.57;14.10;;;;;;;;;;4936877;29;20900;-61
2021/03/01 08:31:23;;;;;;;17.03;15.30;;;;;;;;;;4918039;29;20465;-62
2021/03/01 08:33:51;;;;;;;16.87;15.13;;;;;;;;;;4932470;29;20524;-61
2021/03/01 08:36:27;;;;;;;15.30;13.90;;;;;;;;;;4935198;29;20473;-62
2021/03/01 08:38:55;;;;;;;12.60;10.40;;;;;;;;;;4935582;29;20467;-62
2021/03/01 08:41:42;;;;;;;8.50;7.70;;;;;;;;;;4936735;29;20504;-62
2021/03/01 08:44:19;;;;;;;7.30;6.20;;;;;;;;;;4930360;29;20500;-62
2021/03/01 08:46:46;;;;;;;12.90;10.03;;;;;;;;;;4925518;29;20528;-62
2021/03/01 08:49:22;;;;;;;12.30;11.00;;;;;;;;;;4934648;29;20477;-61
2021/03/01 08:51:49;;;;;;;16.00;11.87;;;;;;;;;;4934858;29;20464;-62
2021/03/01 08:54:25;;;;;;;15.43;11.90;;;;;;;;;;4933836;29;20583;-61
2021/03/01 08:57:01;;;;;;;15.40;11.03;;;;;;;;;;4935463;29;20464;-60
2021/03/01 08:59:28;;;;;;;11.40;10.30;;;;;;;;;;4934820;29;20475;-61
2021/03/01 09:01:55;;;;;;;12.40;11.00;;;;;;;;;;4934671;29;20469;-61
2021/03/01 09:04:22;;;;;;;12.20;10.90;;;;;;;;;;4934457;29;20496;-61
2021/03/01 09:06:49;;;;;;;3.60;3.30;;;;;;;;;;4934393;29;21145;-61
2021/03/01 09:09:15;;;;;;;3.20;3.00;;;;;;;;;;4936302;29;20468;-65
2021/03/01 09:11:43;;;;;;;3.37;3.03;;;;;;;;;;4936081;29;20492;-65
2021/03/01 09:14:09;;;;;;;14.83;13.60;;;;;;;;;;4934572;28;20477;-65
2021/03/01 09:16:40;;;;;;;13.70;12.30;;;;;;;;;;4935945;29;20485;-64
2021/03/01 09:19:07;;;;;;;14.10;12.67;;;;;;;;;;4939580;29;20535;-65
2021/03/01 09:21:37;;;;;;;14.97;13.60;;;;;;;;;;4943673;29;20453;-64
2021/03/01 09:24:04;;;;;;;15.30;13.90;;;;;;;;;;4935641;29;20587;-65
2021/03/01 09:26:32;;;;;;;15.60;14.00;;;;;;;;;;4935882;29;20720;-67
2021/03/01 09:28:59;;;;;;;15.77;14.27;;;;;;;;;;4937778;29;20454;-65
2021/03/01 09:31:26;;;;;;;15.60;14.10;;;;;;;;;;4946736;29;20459;-64
2021/03/01 09:33:54;;;;;;;17.10;14.07;;;;;;;;;;4942682;29;20473;-65
2021/03/01 09:36:20;;;;;;;16.03;14.17;;;;;;;;;;4934560;29;20489;-64
2021/03/01 09:38:51;;;;;;;16.70;13.80;;;;;;;;;;4934764;29;20457;-65
2021/03/01 09:41:18;;;;;;;15.37;13.87;;;;;;;;;;4935174;29;20456;-63
2021/03/01 09:43:47;;;;;;;16.03;14.33;;;;;;;;;;4950894;28;20490;-63
2021/03/01 09:46:14;;;;;;;15.50;14.00;;;;;;;;;;4942865;28;20455;-64
2021/03/01 09:48:43;;;;;;;15.90;14.40;;;;;;;;;;4931913;29;20473;-67
2021/03/01 09:51:10;;;;;;;15.33;13.90;;;;;;;;;;4931422;29;20469;-64
2021/03/01 09:53:37;;;;;;;16.10;14.40;;;;;;;;;;4935542;29;20429;-66
2021/03/01 09:56:05;;;;;;;15.97;14.37;;;;;;;;;;4933279;29;20473;-62
2021/03/01 09:58:32;;;;;;;21.60;19.43;;;;;;;;;;4918948;29;20483;-62
2021/03/01 10:01:06;;;;;;;24.23;21.73;;;;;;;;;;4932173;29;21042;-64
2021/03/01 10:03:34;;;;;;;21.20;19.07;;;;;;;;;;4935107;29;21008;-62
2021/03/01 10:06:01;;;;;;;19.03;16.50;;;;;;;;;;4933671;29;20449;-63
2021/03/01 10:08:28;;;;;;;20.97;18.67;;;;;;;;;;4940071;29;20503;-63
2021/03/01 10:10:55;;;;;;;24.20;21.80;;;;;;;;;;4952353;28;20450;-62
2021/03/01 10:13:26;;;;;;;24.60;22.03;;;;;;;;;;4934847;29;20476;-63
2021/03/01 10:15:54;;;;;;;26.10;23.60;;;;;;;;;;4934022;29;20906;-62
2021/03/01 10:18:22;;;;;;;29.23;26.47;;;;;;;;;;4933438;29;20999;-63
2021/03/01 10:20:49;;;;;;;25.63;22.93;;;;;;;;;;4934424;29;20496;-63
2021/03/01 10:23:26;;;;;;;23.30;21.00;;;;;;;;;;4931114;29;20489;-65
2021/03/01 10:26:02;;;;;;;22.30;20.20;;;;;;;;;;4934221;29;20559;-64
2021/03/01 10:28:31;;;;;;;19.57;17.80;;;;;;;;;;4932947;29;21117;-65
2021/03/01 10:31:01;;;;;;;20.80;18.90;;;;;;;;;;4930345;29;20477;-61
2021/03/01 10:33:28;;;;;;;23.07;20.97;;;;;;;;;;4933047;29;20488;-62
2021/03/01 10:36:07;;;;;;;23.23;20.87;;;;;;;;;;4933920;29;20480;-62
2021/03/01 10:38:48;;;;;;;21.50;19.30;;;;;;;;;;4930368;29;20472;-62
2021/03/01 10:41:16;;;;;;;21.30;19.30;;;;;;;;;;4926596;29;20503;-62
2021/03/01 10:43:50;;;;;;;21.87;19.83;;;;;;;;;;4926974;29;21252;-62
2021/03/01 10:46:27;;;;;;;18.40;16.70;;;;;;;;;;4934511;29;20527;-62
2021/03/01 10:48:54;;;;;;;18.93;17.10;;;;;;;;;;4937460;29;20456;-61
2021/03/01 10:51:20;;;;;;;18.23;16.33;;;;;;;;;;4939811;29;20957;-62
2021/03/01 10:53:47;;;;;;;18.23;16.27;;;;;;;;;;4934953;29;20441;-62
2021/03/01 10:56:14;;;;;;;19.77;17.67;;;;;;;;;;4934369;29;20933;-62
2021/03/01 10:58:40;;;;;;;20.17;18.17;;;;;;;;;;4933694;29;20453;-62
2021/03/01 11:01:08;;;;;;;18.60;16.80;;;;;;;;;;4943064;29;20463;-63
2021/03/01 11:03:34;;;;;;;19.30;16.77;;;;;;;;;;4944125;28;20489;-62
2021/03/01 11:06:01;;;;;;;20.93;18.90;;;;;;;;;;4936481;29;20468;-62
2021/03/01 11:08:27;;;;;;;16.37;14.77;;;;;;;;;;4938976;29;20456;-64
2021/03/01 11:10:54;;;;;;;18.77;16.90;;;;;;;;;;4939792;29;20445;-63
2021/03/01 11:13:21;;;;;;;19.00;17.20;;;;;;;;;;4934015;29;20449;-65
2021/03/01 11:15:47;;;;;;;16.30;14.57;;;;;;;;;;4933502;29;20473;-64
2021/03/01 11:18:15;;;;;;;16.43;13.97;;;;;;;;;;4933884;29;20453;-64
2021/03/01 11:20:41;;;;;;;18.37;16.53;;;;;;;;;;4940242;29;20453;-63
2021/03/01 11:23:08;;;;;;;19.80;16.80;;;;;;;;;;4937181;29;20972;-63
2021/03/01 11:25:35;;;;;;;16.10;14.40;;;;;;;;;;4936862;29;20473;-64
2021/03/01 11:28:01;;;;;;;5.40;3.60;;;;;;;;;;4938348;29;20886;-65
2021/03/01 11:30:28;;;;;;;7.53;4.23;;;;;;;;;;4937511;29;20464;-65
2021/03/01 11:32:55;;;;;;;5.10;4.13;;;;;;;;;;4938668;29;20473;-65
2021/03/01 11:35:23;;;;;;;4.53;3.50;;;;;;;;;;4944448;29;20467;-65
2021/03/01 11:37:49;;;;;;;6.47;4.43;;;;;;;;;;4957522;29;20468;-65
2021/03/01 11:40:16;;;;;;;7.63;4.97;;;;;;;;;;4950683;29;20480;-65
2021/03/01 11:42:43;;;;;;;5.40;4.57;;;;;;;;;;4957128;29;20472;-66
2021/03/01 11:45:10;;;;;;;5.77;3.80;;;;;;;;;;4942369;29;20488;-66
2021/03/01 11:47:37;;;;;;;5.47;4.90;;;;;;;;;;4937914;29;20453;-66
2021/03/01 11:50:04;;;;;;;6.77;4.07;;;;;;;;;;4943034;29;20448;-66
2021/03/01 11:52:31;;;;;;;4.97;4.17;;;;;;;;;;4957012;29;20463;-66
2021/03/01 11:54:59;;;;;;;12.90;11.60;;;;;;;;;;4945427;29;20477;-67
2021/03/01 11:57:27;;;;;;;7.07;6.17;;;;;;;;;;4937585;29;20460;-66
2021/03/01 11:59:53;;;;;;;5.67;5.03;;;;;;;;;;4938590;29;20449;-67
2021/03/01 12:02:20;;;;;;;4.53;4.10;;;;;;;;;;4937788;29;20458;-67
2021/03/01 12:04:47;;;;;;;11.97;9.40;;;;;;;;;;4937812;29;20493;-67
2021/03/01 12:07:14;;;;;;;10.10;9.10;;;;;;;;;;4940490;29;20821;-67
2021/03/01 12:09:41;;;;;;;10.73;9.63;;;;;;;;;;4957269;29;20465;-67
2021/03/01 12:12:08;;;;;;;9.90;9.00;;;;;;;;;;4945612;29;20469;-67
2021/03/01 12:14:35;;;;;;;10.87;9.77;;;;;;;;;;4937680;29;20469;-67
2021/03/01 12:17:01;;;;;;;12.03;10.80;;;;;;;;;;4937075;29;20453;-66
2021/03/01 12:19:28;;;;;;;5.70;4.00;;;;;;;;;;4936907;29;20457;-66
2021/03/01 12:21:55;;;;;;;11.07;9.90;;;;;;;;;;4941480;29;20507;-67
2021/03/01 12:24:22;;;;;;;8.30;7.33;;;;;;;;;;4936556;29;20481;-66
2021/03/01 12:26:50;;;;;;;10.17;9.10;;;;;;;;;;4937836;29;20449;-67
2021/03/01 12:29:17;;;;;;;3.97;3.57;;;;;;;;;;4937284;29;20458;-66
2021/03/01 12:31:43;;;;;;;3.67;3.10;;;;;;;;;;4937093;29;20472;-66
2021/03/01 12:34:10;;;;;;;4.13;3.43;;;;;;;;;;4936728;29;21110;-66
2021/03/01 12:36:36;;;;;;;4.93;4.50;;;;;;;;;;4936832;29;20968;-67
2021/03/01 12:39:03;;;;;;;8.67;6.87;;;;;;;;;;4936921;29;20457;-66
2021/03/01 12:41:30;;;;;;;10.87;9.87;;;;;;;;;;4936035;29;20469;-66
2021/03/01 12:43:57;;;;;;;10.03;8.80;;;;;;;;;;4936612;29;20907;-67
2021/03/01 12:46:24;;;;;;;8.20;7.40;;;;;;;;;;4936697;29;20456;-66
2021/03/01 12:48:51;;;;;;;6.90;6.20;;;;;;;;;;4981460;23;20498;-66
2021/03/01 12:51:17;;;;;;;4.67;4.03;;;;;;;;;;4954213;28;20943;-67
2021/03/01 12:53:44;;;;;;;8.30;7.50;;;;;;;;;;4961205;28;20445;-66
2021/03/01 12:56:11;;;;;;;6.47;5.00;;;;;;;;;;4954731;28;20508;-65
2021/03/01 12:58:37;;;;;;;4.40;3.50;;;;;;;;;;4955828;29;20519;-66
2021/03/01 13:01:05;;;;;;;9.63;8.73;;;;;;;;;;4959041;28;20461;-67
2021/03/01 13:03:31;;;;;;;8.40;7.60;;;;;;;;;;4957619;28;20871;-66
2021/03/01 13:05:58;;;;;;;8.40;7.60;;;;;;;;;;4956357;28;20480;-67
2021/03/01 13:08:25;;;;;;;9.77;8.67;;;;;;;;;;4963491;28;20570;-65
2021/03/01 13:10:54;;;;;;;4.20;3.00;;;;;;;;;;4954807;28;20456;-67
2021/03/01 13:13:20;;;;;;;3.53;3.23;;;;;;;;;;4969981;28;20483;-66
2021/03/01 13:15:47;;;;;;;3.63;3.10;;;;;;;;;;4955077;28;20535;-67
2021/03/01 13:18:15;;;;;;;8.30;3.50;;;;;;;;;;4954526;29;20480;-65
2021/03/01 13:20:41;;;;;;;5.50;3.27;;;;;;;;;;4953155;29;20468;-65
2021/03/01 13:23:08;;;;;;;5.40;3.13;;;;;;;;;;4963328;28;20457;-66
2021/03/01 13:25:35;;;;;;;6.40;3.23;;;;;;;;;;4952275;28;20491;-65
2021/03/01 13:28:02;;;;;;;5.50;3.50;;;;;;;;;;4956397;28;20492;-66
2021/03/01 13:30:29;;;;;;;5.60;3.30;;;;;;;;;;4953252;29;20963;-66
2021/03/01 13:32:55;;;;;;;24.43;4.23;;;;;;;;;;4952992;28;20476;-66
2021/03/01 13:35:23;;;;;;;4.87;4.00;;;;;;;;;;4954308;29;20432;-67
2021/03/01 13:37:49;;;;;;;5.50;4.30;;;;;;;;;;4953837;28;20484;-67
2021/03/01 13:40:16;;;;;;;7.23;5.43;;;;;;;;;;4954243;29;20811;-67
2021/03/01 13:42:43;;;;;;;9.17;8.27;;;;;;;;;;4954162;29;20456;-67
2021/03/01 13:45:11;;;;;;;8.87;7.17;;;;;;;;;;4954355;28;20554;-67
2021/03/01 13:47:39;;;;;;;11.73;10.73;;;;;;;;;;4969127;28;20554;-66
2021/03/01 13:50:07;;;;;;;11.87;10.80;;;;;;;;;;4954427;28;20463;-66
2021/03/01 13:52:34;;;;;;;10.90;9.13;;;;;;;;;;4954013;28;20512;-67
2021/03/01 13:55:01;;;;;;;11.73;10.70;;;;;;;;;;4954757;29;20451;-67
2021/03/01 13:57:27;;;;;;;12.07;10.97;;;;;;;;;;4953607;28;20519;-66
2021/03/01 13:59:54;;;;;;;10.60;9.50;;;;;;;;;;4955373;28;20457;-67
2021/03/01 14:02:20;;;;;;;10.47;9.50;;;;;;;;;;4951898;28;20542;-65
2021/03/01 14:04:47;;;;;;;9.90;8.90;;;;;;;;;;4953760;29;20592;-67
2021/03/01 14:07:14;;;;;;;10.13;9.13;;;;;;;;;;4953500;29;20554;-66
2021/03/01 14:09:42;;;;;;;10.93;9.83;;;;;;;;;;4952428;29;20452;-65
2021/03/01 14:12:09;;;;;;;10.80;9.70;;;;;;;;;;4953035;29;21002;-64
2021/03/01 14:14:35;;;;;;;10.17;9.27;;;;;;;;;;4954075;29;20451;-64
2021/03/01 14:17:02;;;;;;;9.27;8.33;;;;;;;;;;4952631;29;20944;-64
2021/03/01 14:19:29;;;;;;;10.10;9.10;;;;;;;;;;4953982;29;20526;-64
2021/03/01 14:21:55;;;;;;;10.17;9.27;;;;;;;;;;4953243;29;20460;-64
2021/03/01 14:24:22;;;;;;;11.20;10.20;;;;;;;;;;4952853;28;20552;-63
2021/03/01 14:26:49;;;;;;;10.57;9.47;;;;;;;;;;4953279;28;20463;-65